Time;durP1;ratioP1;P1;durP2;ratioP2;P2;SDS_P1;SDS_P2;PMS_P1;PMS_P2;Temp;Humidity;BMP_temperature;BMP_pressure;BME280_temperature;BME280_humidity;BME280_pressure;Samples;Min_cycle;Max_cycle;Signal;HPM_P1;HPM_P2
2024/03/29 00:00:10;;;;;;;;;21.33;17.00;;;;;8.87;84.81;98677.27;113561;221;40270;-55
2024/03/29 00:03:04;;;;;;;;;21.33;18.00;;;;;8.88;84.38;98687.28;113411;224;161752;-55
2024/03/29 00:05:47;;;;;;;;;19.00;15.00;;;;;8.88;84.46;98689.64;113618;225;39943;-59
2024/03/29 00:08:28;;;;;;;;;19.50;15.00;;;;;8.88;84.11;98698.02;113584;221;40041;-59
2024/03/29 00:11:07;;;;;;;;;21.00;16.00;;;;;8.89;83.92;98702.77;113633;222;38932;-55
2024/03/29 00:13:48;;;;;;;;;15.50;11.50;;;;;8.91;83.65;98704.04;113659;224;39999;-55
2024/03/29 00:16:25;;;;;;;;;15.00;12.50;;;;;8.95;83.57;98712.53;113382;221;161993;-59
2024/03/29 00:19:02;;;;;;;;;16.00;13.00;;;;;8.99;83.64;98719.01;113637;220;40313;-59
2024/03/29 00:21:41;;;;;;;;;15.00;12.00;;;;;9.04;83.38;98726.39;113460;220;161026;-57
2024/03/29 00:24:18;;;;;;;;;19.00;15.00;;;;;9.08;83.29;98725.84;113573;221;39337;-57
2024/03/29 00:26:53;;;;;;;;;18.50;13.50;;;;;9.11;83.36;98732.16;113408;221;162615;-58
2024/03/29 00:29:31;;;;;;;;;16.00;13.00;;;;;9.13;83.29;98740.15;113618;225;39271;-57
2024/03/29 00:32:08;;;;;;;;;16.00;13.00;;;;;9.13;83.31;98744.21;113577;221;39133;-58
2024/03/29 00:34:51;;;;;;;;;17.00;14.00;;;;;9.15;83.10;98750.58;113484;221;160698;-59
2024/03/29 00:37:27;;;;;;;;;15.00;13.00;;;;;9.15;83.20;98755.41;113631;224;39232;-59
2024/03/29 00:40:01;;;;;;;;;16.00;12.00;;;;;9.15;83.01;98758.61;113388;221;160570;-56
2024/03/29 00:42:36;;;;;;;;;12.00;10.00;;;;;9.11;83.25;98763.59;113574;220;39193;-56
2024/03/29 00:45:11;;;;;;;;;13.00;11.00;;;;;9.08;83.30;98770.07;113409;225;160908;-57
2024/03/29 00:47:46;;;;;;;;;11.00;8.00;;;;;9.05;83.30;98773.49;113426;223;39237;-56
2024/03/29 00:50:28;;;;;;;;;7.00;6.00;;;;;9.00;83.25;98779.75;113569;220;39436;-56
2024/03/29 00:53:02;;;;;;;;;9.00;7.00;;;;;8.96;83.30;98783.60;113343;224;40903;-55
2024/03/29 00:55:38;;;;;;;;;8.00;7.00;;;;;8.94;83.50;98790.41;113655;224;39767;-54
2024/03/29 00:58:16;;;;;;;;;11.00;8.00;;;;;8.94;83.59;98791.67;113403;224;162433;-54
2024/03/29 01:00:53;;;;;;;;;7.00;6.00;;;;;8.96;83.59;98799.00;113659;220;39074;-58
2024/03/29 01:03:31;;;;;;;;;9.00;7.00;;;;;8.97;83.73;98805.04;113471;220;160985;-58
2024/03/29 01:06:08;;;;;;;;;7.00;5.00;;;;;9.01;83.75;98811.23;113652;225;40527;-58
2024/03/29 01:08:48;;;;;;;;;7.00;6.00;;;;;9.03;83.74;98822.73;113437;224;161981;-59
2024/03/29 01:11:25;;;;;;;;;7.00;6.00;;;;;9.05;83.86;98824.84;113633;224;41143;-57
2024/03/29 01:14:06;;;;;;;;;5.00;4.00;;;;;9.06;83.81;98831.74;113692;221;40939;-58
2024/03/29 01:16:46;;;;;;;;;5.00;4.50;;;;;9.08;83.76;98837.73;113475;221;161944;-59
2024/03/29 01:19:21;;;;;;;;;5.00;4.00;;;;;9.10;83.76;98847.46;113692;220;40967;-55
2024/03/29 01:22:01;;;;;;;;;7.00;6.50;;;;;9.09;83.74;98853.45;113437;220;160070;-56
2024/03/29 01:24:38;;;;;;;;;5.00;4.00;;;;;9.10;83.79;98857.17;113630;220;40253;-59
2024/03/29 01:27:18;;;;;;;;;7.00;6.00;;;;;9.08;84.01;98860.83;113461;221;160408;-59
2024/03/29 01:29:58;;;;;;;;;5.00;4.00;;;;;9.03;84.02;98862.60;113607;225;39014;-54
2024/03/29 01:32:36;;;;;;;;;6.50;5.00;;;;;8.98;84.11;98872.74;113581;224;39646;-54
2024/03/29 01:35:20;;;;;;;;;4.00;4.00;;;;;8.91;84.42;98876.30;113536;225;39030;-57
2024/03/29 01:37:55;;;;;;;;;7.50;4.50;;;;;8.83;84.63;98883.38;113589;220;40463;-58
2024/03/29 01:40:33;;;;;;;;;8.00;6.00;;;;;8.78;84.79;98891.45;113402;221;161694;-55
2024/03/29 01:43:10;;;;;;;;;5.00;4.00;;;;;8.77;84.85;98898.25;113570;221;39173;-55
2024/03/29 01:45:53;;;;;;;;;8.67;7.00;;;;;8.75;84.98;98902.23;113392;221;160998;-55
2024/03/29 01:48:41;;;;;;;;;7.50;6.00;;;;;8.77;85.06;98907.98;112276;225;39959;-54
2024/03/29 01:51:18;;;;;;;;;4.33;4.00;;;;;8.75;85.12;98910.48;113425;225;162148;-58
2024/03/29 01:54:04;;;;;;;;;7.00;5.00;;;;;8.74;85.03;98917.90;113634;222;41195;-57
2024/03/29 01:56:40;;;;;;;;;4.00;3.75;;;;;8.76;85.09;98911.59;113498;224;160933;-59
2024/03/29 01:59:20;;;;;;;;;5.00;4.00;;;;;8.80;85.01;98918.11;113629;220;40236;-56
2024/03/29 02:02:04;;;;;;;;;3.75;3.00;;;;;8.80;84.93;98922.79;113661;220;40173;-58
2024/03/29 02:04:41;;;;;;;;;4.50;3.50;;;;;8.82;84.75;98925.35;113529;221;160784;-58
2024/03/29 02:07:27;;;;;;;;;5.00;5.00;;;;;8.79;84.74;98930.47;113667;224;40752;-58
2024/03/29 02:10:08;;;;;;;;;5.00;4.00;;;;;8.75;84.84;98940.45;113370;221;160627;-59
2024/03/29 02:12:46;;;;;;;;;7.00;5.00;;;;;8.72;84.61;98949.63;113663;220;40041;-59
2024/03/29 02:15:23;;;;;;;;;5.00;4.00;;;;;8.72;84.40;98954.94;113432;225;160442;-55
2024/03/29 02:18:03;;;;;;;;;4.50;4.00;;;;;8.72;84.22;98957.95;113633;225;39135;-56
2024/03/29 02:20:40;;;;;;;;;4.00;4.00;;;;;8.66;84.16;98959.38;113411;220;160475;-58
2024/03/29 02:23:20;;;;;;;;;4.50;4.00;;;;;8.61;84.13;98960.35;113582;225;40260;-57
2024/03/29 02:26:00;;;;;;;;;3.67;3.00;;;;;8.60;83.94;98961.76;113641;220;39414;-55
2024/03/29 02:28:40;;;;;;;;;4.00;3.50;;;;;8.58;83.94;98965.50;113211;225;160618;-55
2024/03/29 02:31:16;;;;;;;;;4.00;3.00;;;;;8.58;83.72;98973.98;113611;220;39436;-58
2024/03/29 02:33:50;;;;;;;;;3.00;3.00;;;;;8.58;83.57;98980.73;113428;220;160806;-57
2024/03/29 02:36:29;;;;;;;;;5.50;4.50;;;;;8.59;83.41;98986.74;113613;225;40706;-56
2024/03/29 02:39:02;;;;;;;;;7.00;5.00;;;;;8.62;83.38;98996.05;113429;224;161617;-57
2024/03/29 02:41:37;;;;;;;;;5.00;4.00;;;;;8.64;83.27;99001.63;113629;224;39719;-54
2024/03/29 02:44:15;;;;;;;;;5.00;5.00;;;;;8.64;83.04;99003.63;113570;220;39452;-54
2024/03/29 02:46:53;;;;;;;;;5.00;3.00;;;;;8.65;82.87;99005.06;113510;225;160192;-54
2024/03/29 02:49:28;;;;;;;;;4.00;4.00;;;;;8.65;82.67;99015.70;113643;225;40230;-57
2024/03/29 02:52:05;;;;;;;;;5.00;5.00;;;;;8.65;82.40;99024.91;113434;221;160297;-57
2024/03/29 02:54:41;;;;;;;;;4.00;4.00;;;;;8.63;82.14;99032.45;113611;221;40221;-56
2024/03/29 02:57:19;;;;;;;;;4.00;3.00;;;;;8.60;82.10;99037.05;113491;220;160388;-56
2024/03/29 02:59:54;;;;;;;;;5.00;3.00;;;;;8.56;82.01;99048.77;113671;225;40580;-58
2024/03/29 03:02:30;;;;;;;;;4.00;4.00;;;;;8.52;81.88;99052.63;113642;220;40012;-59
2024/03/29 03:05:09;;;;;;;;;6.00;5.00;;;;;8.50;81.92;99053.30;113596;222;41662;-55
2024/03/29 03:11:00;;;;;;;;;3.00;3.00;;;;;8.45;81.80;99055.98;113441;224;161111;-56
2024/03/29 03:13:40;;;;;;;;;2.00;2.00;;;;;8.44;81.56;99062.15;113588;220;39466;-56
2024/03/29 03:16:25;;;;;;;;;3.00;2.50;;;;;8.44;81.44;99065.79;113414;220;160865;-58
2024/03/29 03:19:06;;;;;;;;;5.00;4.00;;;;;8.45;81.40;99071.02;113632;220;39719;-56
2024/03/29 03:21:43;;;;;;;;;3.00;3.00;;;;;8.46;81.14;99079.55;113401;221;160903;-56
2024/03/29 03:24:22;;;;;;;;;4.00;3.00;;;;;8.49;80.95;99083.06;113593;221;39200;-58
2024/03/29 03:27:01;;;;;;;;;3.00;3.00;;;;;8.51;80.72;99089.54;113425;224;163957;-60
2024/03/29 03:29:45;;;;;;;;;4.00;4.00;;;;;8.52;80.60;99100.95;113599;221;39763;-55
2024/03/29 03:32:20;;;;;;;;;4.67;4.00;;;;;8.49;80.36;99100.46;113577;220;40966;-55
2024/03/29 03:34:55;;;;;;;;;3.00;3.00;;;;;8.48;80.18;99102.27;113423;223;160124;-56
2024/03/29 03:37:29;;;;;;;;;6.00;5.00;;;;;8.43;80.03;99104.43;113589;220;39500;-56
2024/03/29 03:40:06;;;;;;;;;5.50;4.00;;;;;8.40;79.92;99114.35;113420;225;160144;-56
2024/03/29 03:42:41;;;;;;;;;4.00;3.00;;;;;8.37;79.77;99120.08;113574;220;39775;-55
2024/03/29 03:45:22;;;;;;;;;4.00;3.00;;;;;8.33;79.77;99125.80;113408;225;160512;-58
2024/03/29 03:47:57;;;;;;;;;4.00;3.00;;;;;8.29;79.76;99133.52;113610;220;39915;-61
2024/03/29 03:50:34;;;;;;;;;5.00;4.00;;;;;8.24;79.59;99144.30;113634;220;38850;-56
2024/03/29 03:53:15;;;;;;;;;3.50;3.00;;;;;8.18;79.60;99145.45;113566;222;39415;-56
2024/03/29 03:55:50;;;;;;;;;4.67;4.00;;;;;8.16;79.46;99141.87;113621;220;40148;-57
2024/03/29 03:58:30;;;;;;;;;5.00;4.00;;;;;8.14;79.43;99143.23;113465;221;161034;-58
2024/03/29 04:01:17;;;;;;;;;5.00;4.00;;;;;8.12;79.46;99147.59;113584;221;38965;-55
2024/03/29 04:03:53;;;;;;;;;5.00;4.00;;;;;8.13;79.18;99154.29;113401;221;161859;-57
2024/03/29 04:06:30;;;;;;;;;4.00;4.00;;;;;8.13;79.13;99159.29;113619;224;41003;-55
2024/03/29 04:09:08;;;;;;;;;4.00;4.00;;;;;8.12;79.10;99160.16;113441;220;160181;-58
2024/03/29 04:11:51;;;;;;;;;4.00;3.00;;;;;8.11;79.02;99161.02;113607;220;39581;-58
2024/03/29 04:14:33;;;;;;;;;3.00;3.00;;;;;8.08;78.91;99161.69;113625;221;40763;-59
2024/03/29 04:17:12;;;;;;;;;5.00;4.00;;;;;8.05;78.91;99165.27;113554;222;41015;-59
2024/03/29 04:19:53;;;;;;;;;4.00;3.50;;;;;8.01;78.92;99164.94;113574;220;39276;-60
2024/03/29 04:22:32;;;;;;;;;4.00;3.00;;;;;7.94;78.90;99164.70;113483;221;159983;-59
2024/03/29 04:25:09;;;;;;;;;3.00;3.00;;;;;7.88;78.74;99176.69;113601;224;40316;-54
2024/03/29 04:27:48;;;;;;;;;4.00;3.00;;;;;7.82;78.71;99189.48;113409;221;160468;-54
2024/03/29 04:30:33;;;;;;;;;3.00;3.00;;;;;7.75;78.81;99197.02;113600;221;39945;-57
2024/03/29 04:33:13;;;;;;;;;4.00;3.00;;;;;7.65;78.88;99200.80;113408;220;159997;-57
2024/03/29 04:35:58;;;;;;;;;3.00;3.00;;;;;7.57;78.76;99202.73;113606;220;41441;-57
2024/03/29 04:38:35;;;;;;;;;4.00;4.00;;;;;7.49;78.83;99207.36;113621;222;40759;-58
2024/03/29 04:41:10;;;;;;;;;3.00;2.00;;;;;7.44;78.98;99205.86;113580;225;41389;-60
2024/03/29 04:43:47;;;;;;;;;2.00;2.00;;;;;7.41;78.96;99206.65;113646;220;39412;-58
2024/03/29 04:46:32;;;;;;;;;4.00;3.00;;;;;7.37;79.13;99214.45;113441;225;161035;-55
2024/03/29 04:49:22;;;;;;;;;5.00;4.00;;;;;7.37;79.23;99215.46;113620;225;39770;-58
2024/03/29 04:51:57;;;;;;;;;5.00;4.00;;;;;7.35;79.30;99221.42;113431;221;160709;-58
2024/03/29 04:54:32;;;;;;;;;5.00;3.00;;;;;7.35;79.35;99238.36;113638;220;39877;-56
2024/03/29 04:57:07;;;;;;;;;4.00;3.00;;;;;7.40;79.35;99247.11;113412;220;160547;-55
2024/03/29 04:59:50;;;;;;;;;5.00;5.00;;;;;7.42;79.19;99255.06;113586;220;39071;-56
2024/03/29 05:02:29;;;;;;;;;5.00;4.00;;;;;7.42;79.21;99252.75;113584;220;39677;-56
2024/03/29 05:05:06;;;;;;;;;6.00;5.00;;;;;7.42;79.16;99258.82;113230;225;160268;-59
2024/03/29 05:07:47;;;;;;;;;4.00;4.00;;;;;7.45;79.15;99257.31;113604;222;39265;-59
2024/03/29 05:10:29;;;;;;;;;6.00;5.00;;;;;7.80;79.88;99254.24;113260;222;159877;-59
2024/03/29 05:13:04;;;;;;;;;5.00;4.00;;;;;8.58;79.64;99253.83;113528;221;39753;-59
2024/03/29 05:15:41;;;;;;;;;6.00;5.00;;;;;8.95;79.10;99254.62;113325;221;161121;-61
2024/03/29 05:18:22;;;;;;;;;6.00;5.00;;;;;9.82;79.09;99255.45;113469;225;39359;-60
2024/03/29 05:21:04;;;;;;;;;6.00;5.00;;;;;11.27;78.04;99258.61;113341;222;160391;-54
2024/03/29 05:23:41;;;;;;;;;7.00;6.00;;;;;13.22;76.80;99259.54;113577;222;38777;-55
2024/03/29 05:26:17;;;;;;;;;8.00;7.00;;;;;14.99;75.07;99251.79;113612;221;39989;-57
2024/03/29 05:28:53;;;;;;;;;6.00;5.67;;;;;16.28;72.64;99246.19;113393;221;160787;-56
2024/03/29 05:31:28;;;;;;;;;7.67;6.67;;;;;16.95;70.22;99249.95;113566;225;40908;-55
2024/03/29 05:34:10;;;;;;;;;8.00;5.00;;;;;16.18;68.04;99251.78;113343;221;160967;-56
2024/03/29 05:36:49;;;;;;;;;9.00;8.00;;;;;14.89;67.33;99259.20;113463;223;41475;-55
2024/03/29 05:39:28;;;;;;;;;8.00;7.00;;;;;14.21;67.01;99266.72;113386;221;161332;-58
2024/03/29 05:42:08;;;;;;;;;7.00;6.00;;;;;13.43;66.88;99267.43;113480;222;39356;-57
2024/03/29 05:44:47;;;;;;;;;8.75;7.00;;;;;12.83;66.84;99269.84;113621;222;39506;-56
2024/03/29 05:47:21;;;;;;;;;9.00;8.00;;;;;12.33;67.25;99273.63;113421;223;39997;-55
2024/03/29 05:49:59;;;;;;;;;6.00;6.00;;;;;12.01;67.09;99273.69;113656;221;39619;-58
2024/03/29 05:52:33;;;;;;;;;6.33;5.67;;;;;11.72;67.56;99276.88;113407;225;160881;-57
2024/03/29 05:55:10;;;;;;;;;5.67;5.00;;;;;11.48;68.31;99274.55;113635;224;41094;-56
2024/03/29 05:57:54;;;;;;;;;7.33;6.00;;;;;12.05;68.77;99275.27;113414;220;160542;-56
2024/03/29 06:00:36;;;;;;;;;8.00;7.00;;;;;14.53;68.31;99270.52;113599;220;40809;-59
2024/03/29 06:03:19;;;;;;;;;5.00;4.00;;;;;17.19;67.10;99258.56;113463;224;160622;-60
2024/03/29 06:05:56;;;;;;;;;6.00;5.00;;;;;19.09;64.54;99253.13;113641;220;39907;-56
2024/03/29 06:08:45;;;;;;;;;8.00;7.00;;;;;20.23;62.33;99253.52;113577;220;40968;-56
2024/03/29 06:11:19;;;;;;;;;8.00;7.00;;;;;21.27;60.13;99254.27;113355;225;39286;-57
2024/03/29 06:19:36;;;;;;;;;8.00;7.00;;;;;22.01;53.33;99264.05;113591;220;38903;-56
2024/03/29 06:22:16;;;;;;;;;7.00;6.00;;;;;21.48;52.20;99273.30;113442;225;161306;-57
2024/03/29 06:24:53;;;;;;;;;7.00;6.00;;;;;21.00;52.30;99279.45;113587;225;39841;-57
2024/03/29 06:27:34;;;;;;;;;8.00;7.00;;;;;20.80;51.57;99286.38;113432;224;160710;-57
2024/03/29 06:30:12;;;;;;;;;6.00;5.00;;;;;20.71;51.09;99296.58;113617;224;40723;-55
2024/03/29 06:32:49;;;;;;;;;8.00;6.00;;;;;20.76;50.08;99304.35;113613;220;40073;-57
2024/03/29 06:35:24;;;;;;;;;7.00;7.00;;;;;20.22;49.88;99302.39;113621;224;40405;-57
2024/03/29 06:38:07;;;;;;;;;7.50;7.00;;;;;20.02;50.06;99301.95;113620;220;39735;-56
2024/03/29 06:40:43;;;;;;;;;8.00;7.00;;;;;19.15;50.29;99304.52;113529;220;160395;-58
2024/03/29 06:43:20;;;;;;;;;7.00;6.00;;;;;18.22;50.88;99308.60;113632;225;39216;-57
2024/03/29 06:45:59;;;;;;;;;7.00;6.00;;;;;17.85;50.46;99313.02;113416;221;160974;-56
2024/03/29 06:48:35;;;;;;;;;7.00;6.00;;;;;18.17;51.03;99319.52;113565;225;39062;-55
2024/03/29 06:51:12;;;;;;;;;5.50;5.50;;;;;18.66;51.13;99329.08;113406;221;160739;-59
2024/03/29 06:53:53;;;;;;;;;6.00;6.00;;;;;19.10;51.40;99333.91;113530;221;38868;-58
2024/03/29 06:56:33;;;;;;;;;7.00;6.00;;;;;19.26;51.30;99343.20;113606;220;40563;-58
2024/03/29 06:59:13;;;;;;;;;6.00;5.00;;;;;19.65;50.67;99341.39;113379;222;160474;-57
2024/03/29 07:01:53;;;;;;;;;8.00;7.00;;;;;20.23;49.66;99341.63;113585;221;40771;-57
2024/03/29 07:04:28;;;;;;;;;6.00;5.50;;;;;20.35;48.64;99334.75;113429;221;160234;-55
2024/03/29 07:07:04;;;;;;;;;8.00;7.00;;;;;20.74;49.08;99333.89;113613;220;39569;-55
2024/03/29 07:09:46;;;;;;;;;7.00;6.00;;;;;21.46;48.19;99331.07;113467;220;162180;-55
2024/03/29 07:12:33;;;;;;;;;6.00;6.00;;;;;21.72;47.29;99328.22;113582;225;39818;-55
2024/03/29 07:15:09;;;;;;;;;7.00;6.00;;;;;21.62;45.67;99327.61;113394;221;161119;-58
2024/03/29 07:17:50;;;;;;;;;7.00;6.00;;;;;21.51;46.31;99328.23;113610;225;39520;-55
2024/03/29 07:20:24;;;;;;;;;7.00;5.00;;;;;21.93;45.25;99320.95;113621;220;39980;-58
2024/03/29 07:23:09;;;;;;;;;6.00;6.00;;;;;21.82;44.40;99321.99;113435;222;160255;-58
2024/03/29 07:25:45;;;;;;;;;6.00;5.00;;;;;21.42;44.45;99331.92;113618;221;40257;-58
2024/03/29 07:28:32;;;;;;;;;5.00;5.00;;;;;21.44;44.04;99336.86;113432;221;160373;-55
2024/03/29 07:31:12;;;;;;;;;5.67;4.67;;;;;21.50;43.11;99333.02;113560;225;40309;-58
2024/03/29 07:33:52;;;;;;;;;5.00;5.00;;;;;21.46;41.71;99329.92;113464;221;160295;-55
2024/03/29 07:36:35;;;;;;;;;6.00;5.00;;;;;20.94;41.75;99325.00;113663;221;39992;-58
2024/03/29 07:39:13;;;;;;;;;5.00;4.00;;;;;20.88;43.75;99323.61;113432;221;160441;-56
2024/03/29 07:41:51;;;;;;;;;5.00;5.00;;;;;21.15;44.00;99324.90;113395;225;39957;-55
2024/03/29 07:44:27;;;;;;;;;5.00;4.00;;;;;21.19;43.03;99324.16;113617;225;40172;-54
2024/03/29 07:47:04;;;;;;;;;4.00;4.00;;;;;21.26;43.29;99318.45;113406;221;160419;-54
2024/03/29 07:49:40;;;;;;;;;4.00;4.00;;;;;21.09;44.08;99322.14;113570;220;39813;-55
2024/03/29 07:52:19;;;;;;;;;5.00;4.00;;;;;21.02;44.39;99322.67;113455;221;160375;-54
2024/03/29 07:54:53;;;;;;;;;6.00;5.00;;;;;21.14;45.07;99326.33;113572;225;39789;-58
2024/03/29 07:57:34;;;;;;;;;5.00;5.00;;;;;22.26;44.98;99330.19;113384;225;161091;-55
2024/03/29 08:00:11;;;;;;;;;3.00;3.00;;;;;23.65;42.69;99335.47;113578;221;39932;-57
2024/03/29 08:02:49;;;;;;;;;5.00;4.00;;;;;24.83;41.54;99329.92;113587;221;39335;-58
2024/03/29 08:05:27;;;;;;;;;3.00;3.00;;;;;25.52;40.74;99335.13;113624;225;40274;-58
2024/03/29 08:08:03;;;;;;;;;4.00;4.00;;;;;26.20;39.08;99344.07;113602;225;40407;-58
2024/03/29 08:10:40;;;;;;;;;2.00;2.00;;;;;26.75;38.71;99349.54;113465;221;160253;-58
2024/03/29 08:13:20;;;;;;;;;1.00;1.00;;;;;27.01;36.82;99355.67;113630;225;39400;-58
2024/03/29 08:16:01;;;;;;;;;2.00;2.00;;;;;27.38;35.20;99358.73;113434;225;160368;-55
2024/03/29 08:18:36;;;;;;;;;2.00;2.00;;;;;27.47;36.11;99361.92;113597;221;39185;-56
2024/03/29 08:21:12;;;;;;;;;2.00;2.00;;;;;27.92;35.53;99370.33;113514;224;160769;-57
2024/03/29 08:23:54;;;;;;;;;2.00;1.00;;;;;28.10;34.32;99366.98;113602;221;39922;-54
2024/03/29 08:26:31;;;;;;;;;2.00;2.00;;;;;28.03;34.06;99371.69;113579;220;38936;-57
2024/03/29 08:29:18;;;;;;;;;3.00;3.00;;;;;28.26;33.85;99367.21;113427;225;160499;-57
2024/03/29 08:32:01;;;;;;;;;3.00;3.00;;;;;28.12;33.19;99364.97;113603;225;39922;-58
2024/03/29 08:34:40;;;;;;;;;2.00;2.00;;;;;28.25;33.08;99360.40;113388;221;161482;-57
2024/03/29 08:37:28;;;;;;;;;2.50;2.00;;;;;28.59;33.50;99360.77;113574;221;39689;-57
2024/03/29 08:40:01;;;;;;;;;3.00;2.00;;;;;28.73;33.18;99360.89;113390;221;160222;-55
2024/03/29 08:42:44;;;;;;;;;3.00;3.00;;;;;28.54;31.38;99365.48;113568;221;39480;-55
2024/03/29 08:45:32;;;;;;;;;2.00;2.00;;;;;28.25;30.33;99364.71;113404;222;160717;-57
2024/03/29 08:48:21;;;;;;;;;2.00;2.00;;;;;27.67;31.11;99364.88;113617;221;39318;-60
2024/03/29 08:51:08;;;;;;;;;2.00;2.00;;;;;27.75;31.49;99367.38;113691;222;39294;-58
2024/03/29 08:53:48;;;;;;;;;2.00;1.50;;;;;27.63;32.55;99374.63;113461;225;39826;-55
2024/03/29 08:56:28;;;;;;;;;2.00;2.00;;;;;27.48;32.71;99377.30;113769;222;40146;-54
2024/03/29 08:59:07;;;;;;;;;1.00;1.00;;;;;27.33;32.76;99386.38;113479;222;161637;-55
2024/03/29 09:01:48;;;;;;;;;2.00;2.00;;;;;27.57;31.95;99381.02;113714;222;39449;-57
2024/03/29 09:04:25;;;;;;;;;2.00;2.00;;;;;27.77;31.45;99381.46;113448;221;160502;-56
2024/03/29 09:07:03;;;;;;;;;2.00;2.00;;;;;27.58;29.70;99390.93;113707;222;39629;-56
2024/03/29 09:09:42;;;;;;;;;2.00;2.00;;;;;27.15;30.04;99395.11;113518;222;159926;-55
2024/03/29 09:12:23;;;;;;;;;2.00;2.00;;;;;26.73;29.89;99395.08;113619;222;40492;-57
2024/03/29 09:15:01;;;;;;;;;2.00;2.00;;;;;26.36;30.24;99404.80;113688;225;39751;-60
2024/03/29 09:17:36;;;;;;;;;1.50;1.50;;;;;25.95;29.84;99398.18;113344;222;39463;-58
2024/03/29 09:20:12;;;;;;;;;3.00;3.00;;;;;25.79;31.07;99404.33;113599;221;39631;-55
2024/03/29 09:22:55;;;;;;;;;3.00;3.00;;;;;26.12;31.50;99414.21;113230;221;160458;-56
2024/03/29 09:25:42;;;;;;;;;2.00;2.00;;;;;26.42;30.98;99421.36;113700;222;39645;-60
2024/03/29 09:28:24;;;;;;;;;3.00;3.00;;;;;26.40;30.82;99419.35;113446;221;160477;-60
2024/03/29 09:31:07;;;;;;;;;4.00;4.00;;;;;26.14;31.04;99415.10;113580;225;39693;-54
2024/03/29 09:33:58;;;;;;;;;3.00;3.00;;;;;25.91;31.45;99409.35;113208;222;160568;-58
2024/03/29 09:36:36;;;;;;;;;4.00;4.00;;;;;26.18;31.61;99402.20;113343;223;39454;-57
2024/03/29 09:39:12;;;;;;;;;4.00;3.00;;;;;25.87;31.43;99400.20;113200;223;160520;-57
2024/03/29 09:41:50;;;;;;;;;6.00;5.00;;;;;25.64;32.04;99389.21;113415;223;39118;-57
2024/03/29 09:44:36;;;;;;;;;4.00;4.00;;;;;25.36;32.06;99389.89;113380;224;39630;-59
2024/03/29 09:47:12;;;;;;;;;4.00;4.00;;;;;24.62;31.72;99402.49;111908;224;1632842;-56
2024/03/29 09:49:50;;;;;;;;;5.00;4.00;;;;;23.85;31.77;99413.50;113351;223;39019;-56
2024/03/29 09:52:29;;;;;;;;;5.00;4.00;;;;;22.93;32.35;99412.05;113164;225;160192;-56
2024/03/29 09:55:07;;;;;;;;;6.00;5.00;;;;;22.09;32.97;99419.13;113375;223;40147;-58
2024/03/29 09:57:43;;;;;;;;;5.00;5.00;;;;;21.61;34.17;99422.92;113161;223;160647;-57
2024/03/29 10:00:19;;;;;;;;;8.00;7.00;;;;;21.34;35.12;99424.20;113348;223;41777;-58
2024/03/29 10:02:57;;;;;;;;;7.00;7.00;;;;;21.08;35.55;99424.27;113383;223;39778;-57
2024/03/29 10:05:35;;;;;;;;;7.00;6.25;;;;;20.60;35.58;99429.34;113173;226;159878;-58
2024/03/29 10:08:14;;;;;;;;;7.00;7.00;;;;;20.33;36.56;99428.47;113334;223;39525;-58
2024/03/29 10:10:53;;;;;;;;;7.00;6.00;;;;;20.25;37.06;99432.63;113157;223;160332;-59
2024/03/29 10:13:38;;;;;;;;;7.00;6.00;;;;;20.14;37.50;99432.06;113348;223;39672;-57
2024/03/29 10:16:21;;;;;;;;;9.00;8.00;;;;;20.17;38.34;99425.81;113166;226;160482;-59
2024/03/29 10:19:04;;;;;;;;;7.00;6.00;;;;;20.14;38.01;99426.97;113318;223;40203;-55
2024/03/29 10:21:45;;;;;;;;;4.67;4.33;;;;;20.07;38.23;99426.27;113168;226;160921;-57
2024/03/29 10:24:27;;;;;;;;;6.00;6.00;;;;;19.81;38.18;99424.89;113329;223;39738;-58
2024/03/29 10:27:01;;;;;;;;;4.00;4.00;;;;;19.74;38.55;99421.70;113321;223;39081;-59
2024/03/29 10:29:36;;;;;;;;;5.50;5.00;;;;;19.72;38.20;99420.70;113342;224;39506;-58
2024/03/29 10:32:16;;;;;;;;;5.00;5.00;;;;;19.65;38.43;99426.13;113409;223;39487;-59
2024/03/29 10:34:51;;;;;;;;;5.00;5.00;;;;;19.56;38.65;99429.02;113230;225;160386;-58
2024/03/29 10:37:29;;;;;;;;;5.00;5.00;;;;;19.44;38.93;99427.95;113637;222;38841;-58
2024/03/29 10:40:10;;;;;;;;;4.00;3.00;;;;;19.36;38.84;99433.16;113351;223;160347;-58
2024/03/29 10:42:47;;;;;;;;;5.00;5.00;;;;;19.36;39.28;99432.78;113414;224;39432;-58
2024/03/29 10:45:30;;;;;;;;;4.00;4.00;;;;;19.42;39.06;99432.87;113516;222;161256;-57
2024/03/29 10:48:10;;;;;;;;;4.67;4.00;;;;;19.27;39.03;99429.95;113494;225;39845;-57
2024/03/29 10:50:51;;;;;;;;;5.00;4.00;;;;;19.14;39.43;99422.25;113717;222;39381;-57
2024/03/29 10:53:30;;;;;;;;;5.00;5.00;;;;;19.11;38.59;99428.98;113115;225;160188;-57
2024/03/29 10:56:08;;;;;;;;;3.00;3.00;;;;;19.03;38.76;99433.22;113637;222;39710;-54
2024/03/29 10:58:59;;;;;;;;;4.00;3.00;;;;;18.99;39.60;99435.00;113218;223;160511;-54
2024/03/29 11:01:46;;;;;;;;;4.00;3.00;;;;;18.99;39.38;99432.04;113596;222;39539;-54
2024/03/29 11:04:33;;;;;;;;;3.00;3.00;;;;;18.89;39.43;99426.38;113292;225;160827;-54
2024/03/29 11:07:20;;;;;;;;;4.00;4.00;;;;;18.84;39.62;99421.90;113569;221;41084;-54
2024/03/29 11:10:02;;;;;;;;;4.00;4.00;;;;;18.87;39.60;99435.88;113127;224;160382;-58
2024/03/29 11:13:03;;;;;;;;;4.00;3.00;;;;;18.84;39.14;99442.54;113497;225;40535;-58
2024/03/29 11:15:46;;;;;;;;;4.00;4.00;;;;;18.70;39.60;99433.77;113437;225;160578;-58
2024/03/29 11:18:24;;;;;;;;;4.00;3.00;;;;;18.68;39.38;99445.36;113497;225;39922;-59
2024/03/29 11:21:06;;;;;;;;;3.33;3.00;;;;;18.65;39.46;99443.97;113683;222;39734;-57
2024/03/29 11:23:47;;;;;;;;;3.00;3.00;;;;;18.64;39.39;99436.54;113446;223;40577;-57
2024/03/29 11:26:22;;;;;;;;;4.00;3.00;;;;;18.69;39.36;99421.18;113644;222;39445;-57
2024/03/29 11:29:05;;;;;;;;;3.00;2.50;;;;;18.66;39.38;99420.77;113164;222;160384;-58
2024/03/29 11:31:49;;;;;;;;;3.00;2.00;;;;;18.63;39.46;99419.67;113650;222;39099;-58
2024/03/29 11:34:33;;;;;;;;;3.00;2.50;;;;;18.60;39.31;99421.19;113361;223;160508;-55
2024/03/29 11:37:22;;;;;;;;;3.00;2.00;;;;;18.57;39.36;99415.27;113568;225;39504;-55
2024/03/29 11:40:01;;;;;;;;;2.00;2.00;;;;;18.56;39.19;99414.44;113461;225;160647;-57
2024/03/29 11:42:53;;;;;;;;;3.00;2.00;;;;;18.47;38.94;99412.95;113525;222;39177;-57
2024/03/29 11:45:34;;;;;;;;;4.00;4.00;;;;;18.36;38.99;99419.52;113189;225;161276;-57
2024/03/29 11:48:16;;;;;;;;;2.67;2.00;;;;;18.31;39.33;99421.96;113475;222;39159;-57
2024/03/29 11:50:56;;;;;;;;;2.00;2.00;;;;;18.23;39.21;99432.56;113652;222;39652;-55
2024/03/29 11:53:32;;;;;;;;;3.00;2.00;;;;;18.18;39.10;99443.23;113157;223;161442;-55
2024/03/29 11:56:08;;;;;;;;;2.00;2.00;;;;;18.06;38.69;99445.01;113623;222;38954;-55
2024/03/29 11:58:50;;;;;;;;;3.00;3.00;;;;;17.93;38.91;99444.69;113250;225;185801;-56
2024/03/29 12:01:32;;;;;;;;;3.00;3.00;;;;;17.72;38.78;99431.16;113368;224;39406;-54
2024/03/29 12:04:09;;;;;;;;;2.00;2.00;;;;;17.68;39.45;99424.34;113356;222;160382;-55
2024/03/29 12:06:44;;;;;;;;;2.67;2.33;;;;;17.76;39.79;99428.63;113531;225;39825;-55
2024/03/29 12:09:24;;;;;;;;;3.00;3.00;;;;;17.79;39.65;99429.65;113458;222;160772;-58
2024/03/29 12:12:05;;;;;;;;;3.00;3.00;;;;;17.74;39.41;99435.06;113415;222;39257;-58
2024/03/29 12:14:44;;;;;;;;;1.00;1.00;;;;;17.69;39.88;99435.02;113664;222;39277;-56
2024/03/29 12:17:18;;;;;;;;;4.00;4.00;;;;;17.69;40.02;99439.16;113171;225;160659;-57
2024/03/29 12:20:01;;;;;;;;;2.00;1.50;;;;;17.70;39.62;99439.83;113685;222;39615;-54
2024/03/29 12:22:40;;;;;;;;;3.00;3.00;;;;;17.74;39.82;99444.96;113330;222;160309;-54
2024/03/29 12:25:22;;;;;;;;;4.50;4.00;;;;;17.82;39.72;99449.34;113382;225;39323;-58
2024/03/29 12:28:08;;;;;;;;;4.00;3.00;;;;;17.88;39.17;99448.52;113429;225;161368;-57
2024/03/29 12:30:47;;;;;;;;;5.50;5.00;;;;;17.85;39.67;99445.16;113552;222;39014;-55
2024/03/29 12:33:33;;;;;;;;;3.00;3.00;;;;;17.64;38.93;99454.95;113466;225;160610;-55
2024/03/29 12:36:14;;;;;;;;;4.00;3.00;;;;;17.65;39.51;99457.60;113471;221;40522;-55